sensor_id;sensor_type;location;lat;lon;timestamp;pressure;altitude;pressure_sealevel;temperature;humidity
68654;BME280;55636;51.108;13.622;2023-03-29T00:00:34;100949.09;;;1.60;55.93
68654;BME280;55636;51.108;13.622;2023-03-29T00:01:36;100944.66;;;1.59;56.11
68654;BME280;55636;51.108;13.622;2023-03-29T00:02:43;100951.13;;;1.58;56.01
68654;BME280;55636;51.108;13.622;2023-03-29T00:03:50;100946.56;;;1.58;56.05
68654;BME280;55636;51.108;13.622;2023-03-29T00:04:53;100956.78;;;1.56;55.97
68654;BME280;55636;51.108;13.622;2023-03-29T00:05:59;100955.75;;;1.57;56.16
68654;BME280;55636;51.108;13.622;2023-03-29T00:07:04;100954.88;;;1.57;56.07
68654;BME280;55636;51.108;13.622;2023-03-29T00:08:07;100957.63;;;1.57;56.04
68654;BME280;55636;51.108;13.622;2023-03-29T00:09:09;100952.34;;;1.55;56.07
68654;BME280;55636;51.108;13.622;2023-03-29T00:10:12;100952.16;;;1.57;55.98
68654;BME280;55636;51.108;13.622;2023-03-29T00:11:14;100942.13;;;1.57;55.94
68654;BME280;55636;51.108;13.622;2023-03-29T00:12:16;100946.72;;;1.57;56.04
68654;BME280;55636;51.108;13.622;2023-03-29T00:13:19;100940.44;;;1.56;56.11
68654;BME280;55636;51.108;13.622;2023-03-29T00:14:21;100942.50;;;1.54;56.04
68654;BME280;55636;51.108;13.622;2023-03-29T00:15:24;100945.88;;;1.56;55.94
68654;BME280;55636;51.108;13.622;2023-03-29T00:16:26;100938.75;;;1.55;56.16
68654;BME280;55636;51.108;13.622;2023-03-29T00:17:29;100938.75;;;1.55;56.21
68654;BME280;55636;51.108;13.622;2023-03-29T00:18:31;100937.91;;;1.55;56.06
68654;BME280;55636;51.108;13.622;2023-03-29T00:19:34;100942.50;;;1.54;56.10
68654;BME280;55636;51.108;13.622;2023-03-29T00:20:37;100937.03;;;1.54;55.99
68654;BME280;55636;51.108;13.622;2023-03-29T00:21:40;100935.38;;;1.53;55.92
68654;BME280;55636;51.108;13.622;2023-03-29T00:22:43;100938.94;;;1.54;56.03
68654;BME280;55636;51.108;13.622;2023-03-29T00:23:47;100935.38;;;1.53;56.17
68654;BME280;55636;51.108;13.622;2023-03-29T00:24:53;100932.81;;;1.52;56.19
68654;BME280;55636;51.108;13.622;2023-03-29T00:25:58;100928.22;;;1.52;56.16
68654;BME280;55636;51.108;13.622;2023-03-29T00:27:00;100937.44;;;1.51;56.10
68654;BME280;55636;51.108;13.622;2023-03-29T00:28:02;100936.41;;;1.52;56.21
68654;BME280;55636;51.108;13.622;2023-03-29T00:29:05;100936.59;;;1.51;56.25
68654;BME280;55636;51.108;13.622;2023-03-29T00:30:08;100930.28;;;1.50;56.01
68654;BME280;55636;51.108;13.622;2023-03-29T00:31:13;100937.44;;;1.51;56.08
68654;BME280;55636;51.108;13.622;2023-03-29T00:32:16;100925.69;;;1.51;56.20
68654;BME280;55636;51.108;13.622;2023-03-29T00:33:19;100920.25;;;1.51;56.24
68654;BME280;55636;51.108;13.622;2023-03-29T00:34:22;100933.00;;;1.50;56.29
68654;BME280;55636;51.108;13.622;2023-03-29T00:35:25;100927.56;;;1.50;56.25
68654;BME280;55636;51.108;13.622;2023-03-29T00:36:28;100926.72;;;1.50;56.11
68654;BME280;55636;51.108;13.622;2023-03-29T00:37:30;100924.00;;;1.50;56.17
68654;BME280;55636;51.108;13.622;2023-03-29T00:38:34;100924.19;;;1.48;56.13
68654;BME280;55636;51.108;13.622;2023-03-29T00:39:37;100914.13;;;1.49;56.22
68654;BME280;55636;51.108;13.622;2023-03-29T00:40:44;100917.69;;;1.49;56.13
68654;BME280;55636;51.108;13.622;2023-03-29T00:41:49;100908.69;;;1.49;56.18
68654;BME280;55636;51.108;13.622;2023-03-29T00:42:52;100909.72;;;1.48;56.05
68654;BME280;55636;51.108;13.622;2023-03-29T00:43:59;100905.13;;;1.48;56.09
68654;BME280;55636;51.108;13.622;2023-03-29T00:46:11;100907.00;;;1.48;56.29
68654;BME280;55636;51.108;13.622;2023-03-29T00:47:15;100903.44;;;1.47;56.09
68654;BME280;55636;51.108;13.622;2023-03-29T00:48:25;100905.28;;;1.47;56.15
68654;BME280;55636;51.108;13.622;2023-03-29T00:49:28;100891.69;;;1.47;56.16
68654;BME280;55636;51.108;13.622;2023-03-29T00:51:57;100897.31;;;1.45;56.10
68654;BME280;55636;51.108;13.622;2023-03-29T00:53:00;100892.06;;;1.43;56.15
68654;BME280;55636;51.108;13.622;2023-03-29T00:54:08;100895.81;;;1.42;56.26
68654;BME280;55636;51.108;13.622;2023-03-29T00:55:16;100895.81;;;1.42;56.21
68654;BME280;55636;51.108;13.622;2023-03-29T00:56:35;100900.44;;;1.42;56.09
68654;BME280;55636;51.108;13.622;2023-03-29T00:57:41;100887.00;;;1.40;56.12
68654;BME280;55636;51.108;13.622;2023-03-29T00:58:53;100894.31;;;1.40;56.26
68654;BME280;55636;51.108;13.622;2023-03-29T00:59:59;100890.09;;;1.37;56.24
68654;BME280;55636;51.108;13.622;2023-03-29T01:01:08;100889.25;;;1.37;56.35
68654;BME280;55636;51.108;13.622;2023-03-29T01:02:14;100884.81;;;1.36;56.35
68654;BME280;55636;51.108;13.622;2023-03-29T01:03:17;100893.88;;;1.36;56.17
68654;BME280;55636;51.108;13.622;2023-03-29T01:04:29;100886.72;;;1.35;56.34
68654;BME280;55636;51.108;13.622;2023-03-29T01:05:37;100894.88;;;1.35;56.41
68654;BME280;55636;51.108;13.622;2023-03-29T01:06:47;100893.19;;;1.34;56.28
68654;BME280;55636;51.108;13.622;2023-03-29T01:08:00;100897.81;;;1.34;56.34
68654;BME280;55636;51.108;13.622;2023-03-29T01:09:07;100889.97;;;1.31;56.19
68654;BME280;55636;51.108;13.622;2023-03-29T01:10:20;100887.25;;;1.31;56.38
68654;BME280;55636;51.108;13.622;2023-03-29T01:11:29;100883.72;;;1.30;56.41
68654;BME280;55636;51.108;13.622;2023-03-29T01:12:39;100881.81;;;1.31;56.31
68654;BME280;55636;51.108;13.622;2023-03-29T01:13:53;100886.44;;;1.30;56.26
68654;BME280;55636;51.108;13.622;2023-03-29T01:15:12;100882.84;;;1.30;56.32
68654;BME280;55636;51.108;13.622;2023-03-29T01:16:19;100885.75;;;1.28;56.30
68654;BME280;55636;51.108;13.622;2023-03-29T01:17:23;100881.34;;;1.27;56.40
68654;BME280;55636;51.108;13.622;2023-03-29T01:18:27;100875.06;;;1.26;56.41
68654;BME280;55636;51.108;13.622;2023-03-29T01:19:38;100876.09;;;1.25;56.33
68654;BME280;55636;51.108;13.622;2023-03-29T01:21:09;100865.38;;;1.24;56.41
68654;BME280;55636;51.108;13.622;2023-03-29T01:26:29;100853.00;;;1.21;56.43
68654;BME280;55636;51.108;13.622;2023-03-29T01:27:48;100857.78;;;1.19;56.61
68654;BME280;55636;51.108;13.622;2023-03-29T01:29:02;100856.09;;;1.18;56.61
68654;BME280;55636;51.108;13.622;2023-03-29T01:30:12;100856.25;;;1.17;56.44
68654;BME280;55636;51.108;13.622;2023-03-29T01:31:21;100855.63;;;1.15;56.68
68654;BME280;55636;51.108;13.622;2023-03-29T01:32:51;100853.94;;;1.14;56.58
68654;BME280;55636;51.108;13.622;2023-03-29T01:34:04;100850.56;;;1.12;56.72
68654;BME280;55636;51.108;13.622;2023-03-29T01:35:14;100851.59;;;1.10;56.64
68654;BME280;55636;51.108;13.622;2023-03-29T01:36:27;100848.00;;;1.10;56.56
68654;BME280;55636;51.108;13.622;2023-03-29T01:37:57;100849.69;;;1.11;56.50
68654;BME280;55636;51.108;13.622;2023-03-29T01:38:59;100841.72;;;1.09;56.64
68654;BME280;55636;51.108;13.622;2023-03-29T01:40:06;100843.63;;;1.09;56.63
68654;BME280;55636;51.108;13.622;2023-03-29T01:41:09;100849.06;;;1.09;56.68
68654;BME280;55636;51.108;13.622;2023-03-29T01:45:06;100840.41;;;1.05;56.59
68654;BME280;55636;51.108;13.622;2023-03-29T01:47:44;100833.66;;;1.01;56.67
68654;BME280;55636;51.108;13.622;2023-03-29T01:51:03;100831.78;;;1.02;56.51
68654;BME280;55636;51.108;13.622;2023-03-29T01:52:13;100829.25;;;1.00;56.56
68654;BME280;55636;51.108;13.622;2023-03-29T01:53:27;100818.53;;;0.99;56.71
68654;BME280;55636;51.108;13.622;2023-03-29T01:54:36;100826.88;;;0.97;56.66
68654;BME280;55636;51.108;13.622;2023-03-29T01:55:45;100825.22;;;0.96;56.66
68654;BME280;55636;51.108;13.622;2023-03-29T01:56:50;100828.75;;;0.97;56.55
68654;BME280;55636;51.108;13.622;2023-03-29T01:57:54;100826.22;;;0.95;56.57
68654;BME280;55636;51.108;13.622;2023-03-29T01:59:02;100822.66;;;0.94;56.65
68654;BME280;55636;51.108;13.622;2023-03-29T02:00:05;100822.84;;;0.93;56.62
68654;BME280;55636;51.108;13.622;2023-03-29T02:01:16;100820.13;;;0.93;56.79
68654;BME280;55636;51.108;13.622;2023-03-29T02:02:20;100813.66;;;0.94;56.67
68654;BME280;55636;51.108;13.622;2023-03-29T02:03:26;100813.84;;;0.92;56.74
68654;BME280;55636;51.108;13.622;2023-03-29T02:04:35;100810.28;;;0.92;56.88
68654;BME280;55636;51.108;13.622;2023-03-29T02:05:39;100808.41;;;0.92;56.65
68654;BME280;55636;51.108;13.622;2023-03-29T02:06:43;100806.69;;;0.91;56.68
68654;BME280;55636;51.108;13.622;2023-03-29T02:07:48;100805.00;;;0.90;56.71
68654;BME280;55636;51.108;13.622;2023-03-29T02:08:52;100805.00;;;0.90;56.76
68654;BME280;55636;51.108;13.622;2023-03-29T02:09:57;100805.88;;;0.91;56.65
68654;BME280;55636;51.108;13.622;2023-03-29T02:11:00;100803.34;;;0.89;56.75
68654;BME280;55636;51.108;13.622;2023-03-29T02:12:05;100796.00;;;0.90;56.80
68654;BME280;55636;51.108;13.622;2023-03-29T02:13:09;100805.00;;;0.90;56.63
68654;BME280;55636;51.108;13.622;2023-03-29T02:14:12;100797.91;;;0.89;56.76
68654;BME280;55636;51.108;13.622;2023-03-29T02:15:17;100799.56;;;0.90;56.66
68654;BME280;55636;51.108;13.622;2023-03-29T02:16:21;100803.34;;;0.89;56.84
68654;BME280;55636;51.108;13.622;2023-03-29T02:17:25;100807.09;;;0.88;56.80
68654;BME280;55636;51.108;13.622;2023-03-29T02:18:28;100797.91;;;0.89;56.84
68654;BME280;55636;51.108;13.622;2023-03-29T02:19:31;100800.63;;;0.89;56.66
68654;BME280;55636;51.108;13.622;2023-03-29T02:20:37;100793.28;;;0.90;56.62
68654;BME280;55636;51.108;13.622;2023-03-29T02:24:25;100790.75;;;0.88;56.82
68654;BME280;55636;51.108;13.622;2023-03-29T02:25:30;100790.75;;;0.88;56.69
68654;BME280;55636;51.108;13.622;2023-03-29T02:26:34;100784.47;;;0.88;56.86
68654;BME280;55636;51.108;13.622;2023-03-29T02:27:37;100783.63;;;0.87;56.89
68654;BME280;55636;51.108;13.622;2023-03-29T02:28:41;100781.75;;;0.88;56.71
68654;BME280;55636;51.108;13.622;2023-03-29T02:29:44;100786.34;;;0.87;56.82
68654;BME280;55636;51.108;13.622;2023-03-29T02:30:59;100785.50;;;0.87;56.91
68654;BME280;55636;51.108;13.622;2023-03-29T02:32:15;100779.22;;;0.86;57.02
68654;BME280;55636;51.108;13.622;2023-03-29T02:34:59;100775.47;;;0.87;56.78
68654;BME280;55636;51.108;13.622;2023-03-29T02:36:08;100772.75;;;0.87;56.95
68654;BME280;55636;51.108;13.622;2023-03-29T02:37:13;100768.13;;;0.88;56.79
68654;BME280;55636;51.108;13.622;2023-03-29T02:38:20;100771.72;;;0.88;56.80
68654;BME280;55636;51.108;13.622;2023-03-29T02:39:25;100775.28;;;0.89;56.92
68654;BME280;55636;51.108;13.622;2023-03-29T02:40:28;100764.59;;;0.87;56.81
68654;BME280;55636;51.108;13.622;2023-03-29T02:41:35;100771.06;;;0.86;57.04
68654;BME280;55636;51.108;13.622;2023-03-29T02:42:40;100761.88;;;0.87;56.99
68654;BME280;55636;51.108;13.622;2023-03-29T02:43:45;100766.47;;;0.87;56.85
68654;BME280;55636;51.108;13.622;2023-03-29T02:44:51;100764.59;;;0.87;57.05
68654;BME280;55636;51.108;13.622;2023-03-29T02:45:55;100770.84;;;0.88;56.81
68654;BME280;55636;51.108;13.622;2023-03-29T02:47:06;100767.31;;;0.87;57.07
68654;BME280;55636;51.108;13.622;2023-03-29T02:48:15;100765.63;;;0.86;56.83
68654;BME280;55636;51.108;13.622;2023-03-29T02:49:19;100759.97;;;0.88;56.88
68654;BME280;55636;51.108;13.622;2023-03-29T02:50:24;100761.88;;;0.87;57.03
68654;BME280;55636;51.108;13.622;2023-03-29T02:51:31;100759.34;;;0.86;57.09
68654;BME280;55636;51.108;13.622;2023-03-29T02:52:38;100760.38;;;0.85;57.13
68654;BME280;55636;51.108;13.622;2023-03-29T02:53:48;100748.66;;;0.84;56.90
68654;BME280;55636;51.108;13.622;2023-03-29T02:54:53;100747.59;;;0.85;57.02
68654;BME280;55636;51.108;13.622;2023-03-29T02:55:56;100753.03;;;0.85;57.17
68654;BME280;55636;51.108;13.622;2023-03-29T02:57:04;100754.09;;;0.84;57.16
68654;BME280;55636;51.108;13.622;2023-03-29T02:58:09;100748.66;;;0.84;57.16
68654;BME280;55636;51.108;13.622;2023-03-29T02:59:15;100745.94;;;0.84;57.09
68654;BME280;55636;51.108;13.622;2023-03-29T03:00:18;100743.22;;;0.84;57.22
68654;BME280;55636;51.108;13.622;2023-03-29T03:01:21;100738.78;;;0.83;57.22
68654;BME280;55636;51.108;13.622;2023-03-29T03:02:24;100740.50;;;0.84;57.08
68654;BME280;55636;51.108;13.622;2023-03-29T03:03:28;100743.22;;;0.84;57.18
68654;BME280;55636;51.108;13.622;2023-03-29T03:04:32;100735.88;;;0.85;57.07
68654;BME280;55636;51.108;13.622;2023-03-29T03:05:37;100737.75;;;0.84;57.12
68654;BME280;55636;51.108;13.622;2023-03-29T03:06:40;100742.16;;;0.85;57.07
68654;BME280;55636;51.108;13.622;2023-03-29T03:07:44;100728.75;;;0.84;57.37
68654;BME280;55636;51.108;13.622;2023-03-29T03:08:47;100731.47;;;0.84;57.20
68654;BME280;55636;51.108;13.622;2023-03-29T03:09:50;100729.59;;;0.84;57.29
68654;BME280;55636;51.108;13.622;2023-03-29T03:10:53;100733.16;;;0.85;57.17
68654;BME280;55636;51.108;13.622;2023-03-29T03:11:55;100728.56;;;0.85;57.36
68654;BME280;55636;51.108;13.622;2023-03-29T03:12:59;100730.44;;;0.85;57.23
68654;BME280;55636;51.108;13.622;2023-03-29T03:14:04;100729.41;;;0.86;57.25
68654;BME280;55636;51.108;13.622;2023-03-29T03:15:08;100725.81;;;0.85;57.22
68654;BME280;55636;51.108;13.622;2023-03-29T03:16:13;100717.66;;;0.85;57.24
68654;BME280;55636;51.108;13.622;2023-03-29T03:17:16;100725.00;;;0.85;57.37
68654;BME280;55636;51.108;13.622;2023-03-29T03:18:21;100729.41;;;0.86;57.35
68654;BME280;55636;51.108;13.622;2023-03-29T03:19:24;100720.22;;;0.87;57.39
68654;BME280;55636;51.108;13.622;2023-03-29T03:20:27;100723.97;;;0.86;57.23
68654;BME280;55636;51.108;13.622;2023-03-29T03:21:29;100717.50;;;0.87;57.38
68654;BME280;55636;51.108;13.622;2023-03-29T03:22:33;100722.94;;;0.87;57.41
68654;BME280;55636;51.108;13.622;2023-03-29T03:23:36;100722.94;;;0.87;57.39
68654;BME280;55636;51.108;13.622;2023-03-29T03:24:40;100719.16;;;0.88;57.27
68654;BME280;55636;51.108;13.622;2023-03-29T03:25:44;100725.47;;;0.88;57.44
68654;BME280;55636;51.108;13.622;2023-03-29T03:26:48;100722.75;;;0.88;57.23
68654;BME280;55636;51.108;13.622;2023-03-29T03:27:52;100722.56;;;0.90;57.27
68654;BME280;55636;51.108;13.622;2023-03-29T03:28:58;100718.16;;;0.89;57.14
68654;BME280;55636;51.108;13.622;2023-03-29T03:30:26;100719.00;;;0.89;57.28
68654;BME280;55636;51.108;13.622;2023-03-29T03:31:57;100714.94;;;0.85;57.33
68654;BME280;55636;51.108;13.622;2023-03-29T03:33:19;100724.63;;;0.88;57.29
68654;BME280;55636;51.108;13.622;2023-03-29T03:34:40;100720.03;;;0.88;57.20
68654;BME280;55636;51.108;13.622;2023-03-29T03:35:43;100717.66;;;0.85;57.12
68654;BME280;55636;51.108;13.622;2023-03-29T03:36:49;100723.97;;;0.86;57.23
68654;BME280;55636;51.108;13.622;2023-03-29T03:37:51;100721.25;;;0.86;57.26
68654;BME280;55636;51.108;13.622;2023-03-29T03:38:53;100719.56;;;0.85;57.37
68654;BME280;55636;51.108;13.622;2023-03-29T03:39:56;100725.66;;;0.87;57.37
68654;BME280;55636;51.108;13.622;2023-03-29T03:41:01;100717.88;;;0.84;57.31
68654;BME280;55636;51.108;13.622;2023-03-29T03:42:07;100723.09;;;0.85;57.41
68654;BME280;55636;51.108;13.622;2023-03-29T03:43:15;100719.75;;;0.83;57.33
68654;BME280;55636;51.108;13.622;2023-03-29T03:44:19;100714.31;;;0.83;57.35
68654;BME280;55636;51.108;13.622;2023-03-29T03:45:31;100712.41;;;0.84;57.34
68654;BME280;55636;51.108;13.622;2023-03-29T03:46:50;100706.16;;;0.83;57.33
68654;BME280;55636;51.108;13.622;2023-03-29T03:47:52;100707.19;;;0.82;57.29
68654;BME280;55636;51.108;13.622;2023-03-29T03:49:11;100710.56;;;0.84;57.38
68654;BME280;55636;51.108;13.622;2023-03-29T03:50:14;100701.53;;;0.84;57.26
68654;BME280;55636;51.108;13.622;2023-03-29T03:51:17;100706.97;;;0.84;57.31
68654;BME280;55636;51.108;13.622;2023-03-29T03:52:20;100706.97;;;0.84;57.39
68654;BME280;55636;51.108;13.622;2023-03-29T03:53:23;100707.84;;;0.84;57.30
68654;BME280;55636;51.108;13.622;2023-03-29T03:54:44;100696.09;;;0.84;57.26
68654;BME280;55636;51.108;13.622;2023-03-29T03:56:24;100711.59;;;0.83;57.17
68654;BME280;55636;51.108;13.622;2023-03-29T03:57:46;100702.41;;;0.84;57.28
68654;BME280;55636;51.108;13.622;2023-03-29T03:58:52;100703.25;;;0.85;57.34
68654;BME280;55636;51.108;13.622;2023-03-29T03:59:54;100695.28;;;0.83;57.14
68654;BME280;55636;51.108;13.622;2023-03-29T04:01:13;100700.72;;;0.83;57.22
68654;BME280;55636;51.108;13.622;2023-03-29T04:02:25;100706.16;;;0.83;57.32
68654;BME280;55636;51.108;13.622;2023-03-29T04:03:28;100706.16;;;0.83;57.25
68654;BME280;55636;51.108;13.622;2023-03-29T04:04:33;100706.16;;;0.83;57.40
68654;BME280;55636;51.108;13.622;2023-03-29T04:05:48;100707.84;;;0.84;57.17
68654;BME280;55636;51.108;13.622;2023-03-29T04:06:53;100706.97;;;0.84;57.29
68654;BME280;55636;51.108;13.622;2023-03-29T04:08:15;100698.81;;;0.84;57.18
68654;BME280;55636;51.108;13.622;2023-03-29T04:09:43;100696.28;;;0.82;57.28
68654;BME280;55636;51.108;13.622;2023-03-29T04:11:04;100700.72;;;0.83;57.26
68654;BME280;55636;51.108;13.622;2023-03-29T04:12:11;100706.16;;;0.83;57.26
68654;BME280;55636;51.108;13.622;2023-03-29T04:13:15;100708.19;;;0.81;57.36
68654;BME280;55636;51.108;13.622;2023-03-29T04:14:53;100688.31;;;0.81;57.33
68654;BME280;55636;51.108;13.622;2023-03-29T04:15:57;100693.78;;;0.81;57.11
68654;BME280;55636;51.108;13.622;2023-03-29T04:17:02;100690.19;;;0.80;57.18
68654;BME280;55636;51.108;13.622;2023-03-29T04:18:22;100684.75;;;0.80;57.21
68654;BME280;55636;51.108;13.622;2023-03-29T04:19:28;100687.66;;;0.78;57.27
68654;BME280;55636;51.108;13.622;2023-03-29T04:20:31;100687.47;;;0.80;57.31
68654;BME280;55636;51.108;13.622;2023-03-29T04:21:34;100691.88;;;0.81;57.31
68654;BME280;55636;51.108;13.622;2023-03-29T04:22:37;100691.88;;;0.81;57.18
68654;BME280;55636;51.108;13.622;2023-03-29T04:23:40;100696.28;;;0.82;57.25
68654;BME280;55636;51.108;13.622;2023-03-29T04:24:44;100694.59;;;0.81;57.19
68654;BME280;55636;51.108;13.622;2023-03-29T04:26:05;100694.78;;;0.80;57.30
68654;BME280;55636;51.108;13.622;2023-03-29T04:27:30;100696.50;;;0.81;57.22
68654;BME280;55636;51.108;13.622;2023-03-29T04:28:36;100691.88;;;0.81;57.38
68654;BME280;55636;51.108;13.622;2023-03-29T04:29:43;100701.94;;;0.81;57.30
68654;BME280;55636;51.108;13.622;2023-03-29T04:30:55;100691.06;;;0.81;57.20
68654;BME280;55636;51.108;13.622;2023-03-29T04:32:14;100691.88;;;0.81;57.48
68654;BME280;55636;51.108;13.622;2023-03-29T04:33:23;100690.19;;;0.80;57.21
68654;BME280;55636;51.108;13.622;2023-03-29T04:34:32;100686.44;;;0.81;57.27
68654;BME280;55636;51.108;13.622;2023-03-29T04:35:36;100691.06;;;0.81;57.26
68654;BME280;55636;51.108;13.622;2023-03-29T04:36:41;100687.31;;;0.82;57.29
68654;BME280;55636;51.108;13.622;2023-03-29T04:37:51;100690.03;;;0.82;57.37
68654;BME280;55636;51.108;13.622;2023-03-29T04:38:56;100683.91;;;0.80;57.45
68654;BME280;55636;51.108;13.622;2023-03-29T04:40:03;100683.91;;;0.80;57.47
68654;BME280;55636;51.108;13.622;2023-03-29T04:41:19;100683.09;;;0.79;57.51
68654;BME280;55636;51.108;13.622;2023-03-29T04:42:40;100681.00;;;0.81;57.29
68654;BME280;55636;51.108;13.622;2023-03-29T04:43:45;100674.72;;;0.81;57.53
68654;BME280;55636;51.108;13.622;2023-03-29T04:44:55;100677.25;;;0.82;57.53
68654;BME280;55636;51.108;13.622;2023-03-29T04:46:13;100677.25;;;0.82;57.54
68654;BME280;55636;51.108;13.622;2023-03-29T04:47:45;100681.00;;;0.81;57.31
68654;BME280;55636;51.108;13.622;2023-03-29T04:48:51;100674.53;;;0.82;57.46
68654;BME280;55636;51.108;13.622;2023-03-29T04:50:04;100676.22;;;0.83;57.18
68654;BME280;55636;51.108;13.622;2023-03-29T04:51:17;100684.38;;;0.83;57.42
68654;BME280;55636;51.108;13.622;2023-03-29T04:52:20;100681.66;;;0.83;57.38
68654;BME280;55636;51.108;13.622;2023-03-29T04:53:25;100677.25;;;0.82;57.50
68654;BME280;55636;51.108;13.622;2023-03-29T04:54:27;100672.66;;;0.83;57.50
68654;BME280;55636;51.108;13.622;2023-03-29T04:55:40;100675.38;;;0.83;57.64
68654;BME280;55636;51.108;13.622;2023-03-29T04:56:46;100673.50;;;0.83;57.49
68654;BME280;55636;51.108;13.622;2023-03-29T04:58:10;100664.69;;;0.81;57.56
68654;BME280;55636;51.108;13.622;2023-03-29T04:59:14;100670.78;;;0.83;57.43
68654;BME280;55636;51.108;13.622;2023-03-29T05:00:17;100665.34;;;0.83;57.65
68654;BME280;55636;51.108;13.622;2023-03-29T05:01:39;100672.47;;;0.84;57.59
68654;BME280;55636;51.108;13.622;2023-03-29T05:02:42;100667.03;;;0.84;57.59
68654;BME280;55636;51.108;13.622;2023-03-29T05:03:48;100670.41;;;0.86;57.29
68654;BME280;55636;51.108;13.622;2023-03-29T05:04:57;100666.84;;;0.86;57.59
68654;BME280;55636;51.108;13.622;2023-03-29T05:06:05;100666.66;;;0.87;57.47
68654;BME280;55636;51.108;13.622;2023-03-29T05:07:09;100664.75;;;0.88;57.61
68654;BME280;55636;51.108;13.622;2023-03-29T05:08:14;100668.53;;;0.87;57.57
68654;BME280;55636;51.108;13.622;2023-03-29T05:09:43;100660.19;;;0.88;57.69
68654;BME280;55636;51.108;13.622;2023-03-29T05:10:46;100667.13;;;0.91;57.60
68654;BME280;55636;51.108;13.622;2023-03-29T05:11:51;100657.06;;;0.91;57.59
68654;BME280;55636;51.108;13.622;2023-03-29T05:12:55;100662.31;;;0.93;57.53
68654;BME280;55636;51.108;13.622;2023-03-29T05:13:59;100659.41;;;0.94;57.43
68654;BME280;55636;51.108;13.622;2023-03-29T05:15:08;100657.34;;;0.97;57.60
68654;BME280;55636;51.108;13.622;2023-03-29T05:16:11;100647.50;;;0.96;57.46
68654;BME280;55636;51.108;13.622;2023-03-29T05:17:14;100644.78;;;0.96;57.58
68654;BME280;55636;51.108;13.622;2023-03-29T05:18:17;100654.63;;;0.97;57.70
68654;BME280;55636;51.108;13.622;2023-03-29T05:19:20;100653.59;;;0.98;57.44
68654;BME280;55636;51.108;13.622;2023-03-29T05:20:25;100656.97;;;1.00;57.53
68654;BME280;55636;51.108;13.622;2023-03-29T05:21:28;100656.81;;;1.01;57.66
68654;BME280;55636;51.108;13.622;2023-03-29T05:22:35;100658.47;;;1.02;57.41
68654;BME280;55636;51.108;13.622;2023-03-29T05:23:37;100649.28;;;1.03;57.55
68654;BME280;55636;51.108;13.622;2023-03-29T05:24:59;100651.16;;;1.03;57.59
68654;BME280;55636;51.108;13.622;2023-03-29T05:26:02;100644.69;;;1.04;57.56
68654;BME280;55636;51.108;13.622;2023-03-29T05:27:05;100642.59;;;1.06;57.46
68654;BME280;55636;51.108;13.622;2023-03-29T05:28:10;100646.81;;;1.08;57.35
68654;BME280;55636;51.108;13.622;2023-03-29T05:29:12;100640.56;;;1.08;57.52
68654;BME280;55636;51.108;13.622;2023-03-29T05:30:17;100647.69;;;1.09;57.34
68654;BME280;55636;51.108;13.622;2023-03-29T05:31:43;100644.78;;;1.10;57.37
68654;BME280;55636;51.108;13.622;2023-03-29T05:32:47;100636.41;;;1.12;57.45
68654;BME280;55636;51.108;13.622;2023-03-29T05:33:52;100635.38;;;1.13;57.45
68654;BME280;55636;51.108;13.622;2023-03-29T05:34:55;100632.47;;;1.15;57.38
68654;BME280;55636;51.108;13.622;2023-03-29T05:36:17;100635.81;;;1.17;57.51
68654;BME280;55636;51.108;13.622;2023-03-29T05:37:23;100642.13;;;1.17;57.40
68654;BME280;55636;51.108;13.622;2023-03-29T05:38:31;100632.06;;;1.18;57.43
68654;BME280;55636;51.108;13.622;2023-03-29T05:39:37;100645.47;;;1.19;57.32
68654;BME280;55636;51.108;13.622;2023-03-29T05:40:40;100639.66;;;1.22;57.36
68654;BME280;55636;51.108;13.622;2023-03-29T05:42:02;100643.22;;;1.23;57.32
68654;BME280;55636;51.108;13.622;2023-03-29T05:43:09;100638.63;;;1.23;57.30
68654;BME280;55636;51.108;13.622;2023-03-29T05:44:12;100637.59;;;1.24;57.29
68654;BME280;55636;51.108;13.622;2023-03-29T05:45:16;100640.97;;;1.26;57.21
68654;BME280;55636;51.108;13.622;2023-03-29T05:46:19;100643.28;;;1.30;57.19
68654;BME280;55636;51.108;13.622;2023-03-29T05:47:25;100640.78;;;1.28;57.24
68654;BME280;55636;51.108;13.622;2023-03-29T05:48:29;100646.69;;;1.32;57.33
68654;BME280;55636;51.108;13.622;2023-03-29T05:49:32;100647.34;;;1.34;57.23
68654;BME280;55636;51.108;13.622;2023-03-29T05:50:40;100649.88;;;1.35;57.20
68654;BME280;55636;51.108;13.622;2023-03-29T05:51:46;100649.00;;;1.35;57.42
68654;BME280;55636;51.108;13.622;2023-03-29T05:52:49;100644.22;;;1.37;57.27
68654;BME280;55636;51.108;13.622;2023-03-29T05:53:52;100648.44;;;1.39;57.32
68654;BME280;55636;51.108;13.622;2023-03-29T05:54:55;100647.41;;;1.40;57.40
68654;BME280;55636;51.108;13.622;2023-03-29T05:55:57;100651.78;;;1.41;57.39
68654;BME280;55636;51.108;13.622;2023-03-29T05:57:02;100647.00;;;1.43;57.40
68654;BME280;55636;51.108;13.622;2023-03-29T05:58:04;100644.09;;;1.45;57.31
68654;BME280;55636;51.108;13.622;2023-03-29T05:59:08;100651.22;;;1.46;57.43
68654;BME280;55636;51.108;13.622;2023-03-29T06:00:12;100649.16;;;1.48;57.30
68654;BME280;55636;51.108;13.622;2023-03-29T06:01:27;100649.81;;;1.50;57.27
68654;BME280;55636;51.108;13.622;2023-03-29T06:02:35;100647.94;;;1.51;57.33
68654;BME280;55636;51.108;13.622;2023-03-29T06:03:38;100656.94;;;1.51;57.34
68654;BME280;55636;51.108;13.622;2023-03-29T06:04:40;100652.16;;;1.53;57.27
68654;BME280;55636;51.108;13.622;2023-03-29T06:06:00;100647.53;;;1.54;57.19
68654;BME280;55636;51.108;13.622;2023-03-29T06:07:07;100653.44;;;1.57;57.16
68654;BME280;55636;51.108;13.622;2023-03-29T06:08:11;100655.16;;;1.58;57.30
68654;BME280;55636;51.108;13.622;2023-03-29T06:09:52;100652.22;;;1.60;57.14
68654;BME280;55636;51.108;13.622;2023-03-29T06:11:00;100653.72;;;1.63;57.20